Time;durP1;ratioP1;P1;durP2;ratioP2;P2;SDS_P1;SDS_P2;PMS_P1;PMS_P2;Temp;Humidity;BMP_temperature;BMP_pressure;BME280_temperature;BME280_humidity;BME280_pressure;Samples;Min_cycle;Max_cycle;Signal;HPM_P1;HPM_P2
2021/06/18 00:01:37;;;;;;;10.07;5.63;;;25.50;63.80;;;;;;5089376;28;20028;-74
2021/06/18 00:04:03;;;;;;;11.27;5.70;;;25.50;64.30;;;;;;5086601;28;20397;-74
2021/06/18 00:06:29;;;;;;;6.88;5.05;;;25.50;64.60;;;;;;5086086;28;20498;-74
2021/06/18 00:08:54;;;;;;;9.05;5.32;;;25.40;64.40;;;;;;5086188;28;20036;-73
2021/06/18 00:11:20;;;;;;;9.30;5.53;;;25.40;65.10;;;;;;5075362;28;20023;-74
2021/06/18 00:13:46;;;;;;;7.38;5.60;;;25.40;65.00;;;;;;5091125;28;20020;-74
2021/06/18 00:16:11;;;;;;;8.93;5.85;;;25.30;64.80;;;;;;5087293;28;20542;-74
2021/06/18 00:18:39;;;;;;;6.55;5.07;;;25.30;65.60;;;;;;5095167;28;20086;-74
2021/06/18 00:21:05;;;;;;;8.20;5.38;;;25.30;65.40;;;;;;5092962;28;20081;-74
2021/06/18 00:23:30;;;;;;;6.57;5.38;;;25.30;65.60;;;;;;5074354;28;20117;-74
2021/06/18 00:25:56;;;;;;;6.65;5.70;;;25.30;65.90;;;;;;5091460;28;20514;-74
2021/06/18 00:28:22;;;;;;;11.80;6.05;;;25.20;65.50;;;;;;5084062;28;20031;-73
2021/06/18 00:30:48;;;;;;;6.90;4.90;;;25.20;65.40;;;;;;5090200;28;20103;-74
2021/06/18 00:33:13;;;;;;;7.57;4.85;;;25.20;65.70;;;;;;5092164;28;20085;-74
2021/06/18 00:35:39;;;;;;;8.15;5.78;;;25.20;65.70;;;;;;5090923;28;20020;-74
2021/06/18 00:38:05;;;;;;;8.57;5.45;;;25.20;66.60;;;;;;5090341;28;20031;-74
2021/06/18 00:40:31;;;;;;;6.13;5.25;;;25.10;66.10;;;;;;5085715;28;20124;-74
2021/06/18 00:42:56;;;;;;;8.70;5.32;;;25.10;66.00;;;;;;5091384;28;20103;-74
2021/06/18 00:45:22;;;;;;;9.88;5.78;;;25.10;66.10;;;;;;5084501;28;20085;-74
2021/06/18 00:47:53;;;;;;;7.78;5.20;;;25.10;66.40;;;;;;5078170;28;20089;-74
2021/06/18 00:50:20;;;;;;;10.10;6.22;;;25.10;66.10;;;;;;5080030;28;20118;-74
2021/06/18 00:52:46;;;;;;;7.90;5.78;;;25.00;66.40;;;;;;5091549;28;20103;-73
2021/06/18 00:55:12;;;;;;;7.28;5.47;;;25.00;66.50;;;;;;5070543;28;20024;-74
2021/06/18 00:57:38;;;;;;;7.50;5.68;;;25.00;66.80;;;;;;5078195;28;20042;-74
2021/06/18 01:00:07;;;;;;;7.20;5.75;;;25.00;67.00;;;;;;5086015;28;20059;-74
2021/06/18 01:02:33;;;;;;;8.23;5.85;;;24.90;67.10;;;;;;5091812;28;20035;-73
2021/06/18 01:04:59;;;;;;;8.32;5.78;;;24.90;66.90;;;;;;5091812;28;20099;-74
2021/06/18 01:07:55;;;;;;;8.52;5.68;;;24.90;67.40;;;;;;5088063;28;20035;-74
2021/06/18 01:10:20;;;;;;;9.32;5.95;;;24.80;67.20;;;;;;5089089;28;20028;-74
2021/06/18 01:13:17;;;;;;;9.30;6.38;;;24.90;67.30;;;;;;5086658;28;20560;-73
2021/06/18 01:16:09;;;;;;;8.48;5.65;;;24.80;67.70;;;;;;5094490;28;20485;-74
2021/06/18 01:18:45;;;;;;;8.88;6.10;;;24.80;67.70;;;;;;5096546;28;20103;-74
2021/06/18 01:21:25;;;;;;;8.55;5.80;;;24.80;67.90;;;;;;5086638;28;20044;-74
2021/06/18 01:24:14;;;;;;;7.75;5.95;;;24.80;67.70;;;;;;5088609;28;20103;-73
2021/06/18 01:27:04;;;;;;;9.02;6.43;;;24.70;68.00;;;;;;5086786;28;20498;-74
2021/06/18 01:29:36;;;;;;;9.18;7.20;;;24.70;68.00;;;;;;5081100;28;20040;-74
2021/06/18 01:32:05;;;;;;;7.50;6.25;;;24.70;68.20;;;;;;5080477;28;20102;-74
2021/06/18 01:34:33;;;;;;;6.82;6.00;;;24.60;68.60;;;;;;5091917;28;20035;-74
2021/06/18 01:37:17;;;;;;;7.40;6.20;;;24.60;69.30;;;;;;5090325;28;20020;-73
2021/06/18 01:39:46;;;;;;;8.35;6.00;;;24.60;69.10;;;;;;5085277;28;20542;-74
2021/06/18 01:42:14;;;;;;;10.30;5.85;;;24.50;69.10;;;;;;5089902;28;20032;-74
2021/06/18 01:44:41;;;;;;;7.18;6.35;;;24.50;69.50;;;;;;5066708;28;20418;-74
2021/06/18 01:47:09;;;;;;;10.48;6.28;;;24.50;69.20;;;;;;5085169;28;20020;-74
2021/06/18 01:49:40;;;;;;;8.30;6.80;;;24.50;69.40;;;;;;5089881;28;20039;-73
2021/06/18 01:52:07;;;;;;;8.95;5.75;;;24.50;69.50;;;;;;5081928;28;20053;-74
2021/06/18 01:54:35;;;;;;;8.48;6.10;;;24.50;69.90;;;;;;5093939;28;20024;-74
2021/06/18 01:57:02;;;;;;;8.13;6.68;;;24.40;69.40;;;;;;5094361;28;20058;-74
2021/06/18 01:59:31;;;;;;;11.05;6.15;;;24.40;69.80;;;;;;5071037;28;20078;-73
2021/06/18 02:01:58;;;;;;;6.60;5.90;;;24.40;69.90;;;;;;5094611;28;20035;-74
2021/06/18 02:04:26;;;;;;;8.30;6.18;;;24.40;70.00;;;;;;5095010;28;20086;-74
2021/06/18 02:06:53;;;;;;;9.13;6.25;;;24.40;69.80;;;;;;5084677;28;20108;-74
2021/06/18 02:09:22;;;;;;;6.35;5.75;;;24.30;69.70;;;;;;5080189;28;20021;-74
2021/06/18 02:11:48;;;;;;;8.20;6.65;;;24.30;70.00;;;;;;5093558;28;20028;-74
2021/06/18 02:14:18;;;;;;;7.57;6.40;;;24.20;70.50;;;;;;5094839;28;20031;-74
2021/06/18 02:16:49;;;;;;;8.30;6.90;;;24.20;70.10;;;;;;5094657;28;20362;-74
2021/06/18 02:19:17;;;;;;;9.43;6.85;;;24.20;70.10;;;;;;5104810;28;20055;-74
2021/06/18 02:21:45;;;;;;;10.18;6.95;;;24.20;70.20;;;;;;5104968;28;20373;-73
2021/06/18 02:24:11;;;;;;;9.25;7.10;;;24.20;71.20;;;;;;5099726;28;20019;-74
2021/06/18 02:26:39;;;;;;;11.50;7.20;;;24.10;71.30;;;;;;5107917;28;20031;-73
2021/06/18 02:29:07;;;;;;;11.73;7.85;;;24.10;71.60;;;;;;5100977;28;20088;-74
2021/06/18 02:31:36;;;;;;;9.57;7.93;;;24.00;71.90;;;;;;5098174;28;20036;-73
2021/06/18 02:34:02;;;;;;;7.95;6.63;;;24.00;71.60;;;;;;5084766;28;20035;-73
2021/06/18 02:36:28;;;;;;;12.10;7.60;;;24.00;71.70;;;;;;5085744;28;20028;-74
2021/06/18 02:38:53;;;;;;;8.77;7.55;;;24.00;72.10;;;;;;5081918;28;20035;-73
2021/06/18 02:41:20;;;;;;;14.65;8.35;;;24.00;71.90;;;;;;5105258;28;20074;-73
2021/06/18 02:43:45;;;;;;;10.35;8.60;;;23.90;72.20;;;;;;5082927;28;20474;-73
2021/06/18 02:46:24;;;;;;;10.00;7.55;;;23.90;72.30;;;;;;5101132;28;20027;-73
2021/06/18 02:48:54;;;;;;;12.77;8.55;;;23.90;72.40;;;;;;5100122;28;20039;-74
2021/06/18 02:51:32;;;;;;;11.00;7.15;;;23.90;73.10;;;;;;5102385;28;20034;-74
2021/06/18 02:54:08;;;;;;;11.75;9.80;;;23.80;73.30;;;;;;5098738;28;20503;-74
2021/06/18 02:56:57;;;;;;;13.15;8.85;;;23.80;74.10;;;;;;5102930;28;20115;-74
2021/06/18 02:59:27;;;;;;;11.73;8.60;;;23.70;73.80;;;;;;5102798;28;20024;-74
2021/06/18 03:01:57;;;;;;;10.10;8.43;;;23.70;73.90;;;;;;5097170;28;20382;-73
2021/06/18 03:04:26;;;;;;;11.38;9.65;;;23.70;73.70;;;;;;5099136;28;20028;-74
2021/06/18 03:06:59;;;;;;;11.93;9.20;;;23.60;74.70;;;;;;5102036;28;20166;-74
2021/06/18 03:09:32;;;;;;;11.05;8.45;;;23.60;74.60;;;;;;5101677;28;20028;-74
2021/06/18 03:12:00;;;;;;;9.63;8.07;;;23.60;74.30;;;;;;5086007;28;20027;-74
2021/06/18 03:14:29;;;;;;;13.45;9.48;;;23.60;74.40;;;;;;5104409;28;20382;-74
2021/06/18 03:16:59;;;;;;;10.65;8.50;;;23.60;74.70;;;;;;5102402;28;20112;-74
2021/06/18 03:19:41;;;;;;;14.73;10.57;;;23.60;74.60;;;;;;5080415;28;20178;-74
2021/06/18 03:22:08;;;;;;;14.63;10.50;;;23.60;75.60;;;;;;5099617;28;20115;-74
2021/06/18 03:24:35;;;;;;;10.68;8.65;;;23.50;75.80;;;;;;5102106;28;20023;-74
2021/06/18 03:27:01;;;;;;;14.02;10.50;;;23.50;75.50;;;;;;5104083;28;20039;-74
2021/06/18 03:29:29;;;;;;;11.20;8.90;;;23.50;75.40;;;;;;5103523;28;20506;-74
2021/06/18 03:31:57;;;;;;;18.08;11.15;;;23.50;75.20;;;;;;5100965;28;20034;-74
2021/06/18 03:34:25;;;;;;;11.00;8.88;;;23.50;76.70;;;;;;5101575;28;20028;-73
2021/06/18 03:36:52;;;;;;;13.40;10.90;;;23.50;76.00;;;;;;5099220;28;20032;-74
2021/06/18 03:39:20;;;;;;;16.98;10.98;;;23.50;76.50;;;;;;5101142;28;20401;-74
2021/06/18 03:41:46;;;;;;;11.23;9.40;;;23.40;76.40;;;;;;5102458;28;20040;-74
2021/06/18 03:44:14;;;;;;;15.90;9.43;;;23.50;75.90;;;;;;5101739;28;20035;-74
2021/06/18 03:46:42;;;;;;;13.25;9.60;;;23.50;75.80;;;;;;5094035;28;20334;-74
2021/06/18 03:49:09;;;;;;;12.00;10.70;;;23.50;76.00;;;;;;5097009;28;20282;-74
2021/06/18 03:51:36;;;;;;;13.95;10.00;;;23.50;76.10;;;;;;5095035;28;20560;-74
2021/06/18 03:54:03;;;;;;;19.23;12.48;;;23.50;76.40;;;;;;5099549;28;20496;-75
2021/06/18 03:56:30;;;;;;;17.98;12.18;;;23.40;76.70;;;;;;5079379;28;20109;-75
2021/06/18 03:58:57;;;;;;;18.15;10.57;;;23.40;76.80;;;;;;5096719;28;20062;-75
2021/06/18 04:01:26;;;;;;;18.38;11.85;;;23.40;76.70;;;;;;5095633;28;20081;-75
2021/06/18 04:03:53;;;;;;;12.93;10.32;;;23.30;77.20;;;;;;5081474;28;20074;-75
2021/06/18 04:06:20;;;;;;;12.57;10.48;;;23.30;77.00;;;;;;5102549;28;20063;-74
2021/06/18 04:08:47;;;;;;;12.57;9.52;;;23.30;76.80;;;;;;5099482;28;20028;-74
2021/06/18 04:11:16;;;;;;;13.90;10.00;;;23.30;76.60;;;;;;5101836;28;20061;-74
2021/06/18 04:13:43;;;;;;;14.93;11.13;;;23.40;76.90;;;;;;5103089;28;20106;-74
2021/06/18 04:16:12;;;;;;;13.35;10.93;;;23.40;77.40;;;;;;5100055;28;20099;-75
2021/06/18 04:18:42;;;;;;;13.38;10.43;;;23.30;77.40;;;;;;5062108;28;20028;-74
2021/06/18 04:21:12;;;;;;;14.95;10.65;;;23.30;77.50;;;;;;5098677;28;20024;-75
2021/06/18 04:23:38;;;;;;;15.95;10.10;;;23.30;77.40;;;;;;5099141;28;20028;-75
2021/06/18 04:26:03;;;;;;;14.13;9.27;;;23.30;77.50;;;;;;5097571;28;20362;-75
2021/06/18 04:28:29;;;;;;;13.10;9.57;;;23.30;77.30;;;;;;5100669;28;20096;-75
2021/06/18 04:30:55;;;;;;;13.07;9.05;;;23.30;77.10;;;;;;5078693;28;20028;-75
2021/06/18 04:33:21;;;;;;;12.98;10.25;;;23.30;77.00;;;;;;5093518;28;20051;-75
2021/06/18 04:35:47;;;;;;;12.27;9.48;;;23.40;77.50;;;;;;5101215;28;20048;-75
2021/06/18 04:38:13;;;;;;;9.93;8.93;;;23.40;77.40;;;;;;5105213;28;20386;-75
2021/06/18 04:40:39;;;;;;;10.82;9.73;;;23.40;77.20;;;;;;5086184;28;20028;-75
2021/06/18 04:43:05;;;;;;;9.30;7.53;;;23.40;77.40;;;;;;5102531;28;20039;-75
2021/06/18 04:45:32;;;;;;;9.32;8.13;;;23.40;77.10;;;;;;5091328;28;20032;-74
2021/06/18 04:47:58;;;;;;;13.48;9.75;;;23.50;77.10;;;;;;5097238;28;20028;-75
2021/06/18 04:50:24;;;;;;;10.55;8.50;;;23.50;77.40;;;;;;5098093;28;20030;-78
2021/06/18 04:52:50;;;;;;;10.05;8.82;;;23.50;76.80;;;;;;5081618;28;20031;-75
2021/06/18 04:55:17;;;;;;;10.30;8.77;;;23.60;77.00;;;;;;5077486;28;20393;-73
2021/06/18 04:57:45;;;;;;;11.25;8.52;;;23.60;76.60;;;;;;5094249;28;20039;-76
2021/06/18 05:00:12;;;;;;;12.43;8.93;;;23.60;77.00;;;;;;5091598;28;20024;-76
2021/06/18 05:02:38;;;;;;;12.73;8.40;;;23.70;76.60;;;;;;5086606;28;20054;-76
2021/06/18 05:05:04;;;;;;;13.38;8.98;;;23.70;76.60;;;;;;5089321;28;20104;-75
2021/06/18 05:07:31;;;;;;;9.32;7.28;;;23.70;76.50;;;;;;5096358;28;20496;-75
2021/06/18 05:09:56;;;;;;;9.73;7.35;;;23.70;76.30;;;;;;5096179;28;20043;-74
2021/06/18 05:12:22;;;;;;;9.52;8.15;;;23.70;76.10;;;;;;5096523;28;20024;-75
2021/06/18 05:14:48;;;;;;;9.63;7.57;;;23.70;76.20;;;;;;5098522;28;20541;-73
2021/06/18 05:17:14;;;;;;;11.02;7.60;;;23.80;76.10;;;;;;5082804;28;20022;-73
2021/06/18 05:19:40;;;;;;;8.95;7.60;;;23.80;75.70;;;;;;5097656;28;20463;-75
2021/06/18 05:22:06;;;;;;;11.27;7.10;;;23.80;75.40;;;;;;5101574;28;20028;-73
2021/06/18 05:24:32;;;;;;;8.70;7.80;;;23.90;75.30;;;;;;5094610;28;20130;-73
2021/06/18 05:26:58;;;;;;;9.15;7.53;;;23.90;75.30;;;;;;5094365;28;20028;-76
2021/06/18 05:29:24;;;;;;;12.15;7.43;;;24.00;75.10;;;;;;5082810;28;20028;-73
2021/06/18 05:31:50;;;;;;;9.90;7.80;;;24.00;75.00;;;;;;5104196;28;20024;-73
2021/06/18 05:34:16;;;;;;;8.68;7.53;;;24.00;74.60;;;;;;5104108;28;20374;-75
2021/06/18 05:36:44;;;;;;;9.52;7.40;;;24.10;74.30;;;;;;5102439;28;20020;-73
2021/06/18 05:39:12;;;;;;;11.50;7.78;;;24.10;74.10;;;;;;5085432;28;20020;-74
2021/06/18 05:41:38;;;;;;;11.07;8.82;;;24.20;74.40;;;;;;5087418;28;20027;-74
2021/06/18 05:44:04;;;;;;;8.82;7.13;;;24.10;74.50;;;;;;5102209;28;20027;-74
2021/06/18 05:46:30;;;;;;;8.80;7.45;;;24.10;74.30;;;;;;5095704;28;20107;-74
2021/06/18 05:48:56;;;;;;;7.93;7.13;;;24.20;74.40;;;;;;5086977;28;20038;-74
2021/06/18 05:51:22;;;;;;;8.95;6.50;;;24.20;74.00;;;;;;5101767;28;20024;-74
2021/06/18 05:53:48;;;;;;;9.02;7.65;;;24.20;74.00;;;;;;5103330;28;20072;-74
2021/06/18 05:56:13;;;;;;;9.13;7.60;;;24.30;73.60;;;;;;5087845;28;20108;-74
2021/06/18 05:58:39;;;;;;;9.43;7.22;;;24.30;73.30;;;;;;5101214;28;20486;-74
2021/06/18 06:01:05;;;;;;;8.93;7.28;;;24.40;73.10;;;;;;5100814;28;20081;-74
2021/06/18 06:03:30;;;;;;;7.93;7.13;;;24.40;73.00;;;;;;5100103;28;20035;-76
2021/06/18 06:05:56;;;;;;;8.25;7.28;;;24.50;72.80;;;;;;5097098;28;20076;-75
2021/06/18 06:08:22;;;;;;;7.82;7.03;;;24.50;72.50;;;;;;5100921;28;20027;-74
2021/06/18 06:10:48;;;;;;;8.05;6.82;;;24.60;72.60;;;;;;5101526;28;20028;-73
2021/06/18 06:13:19;;;;;;;8.20;7.18;;;24.60;72.10;;;;;;5100839;28;20373;-74
2021/06/18 06:15:46;;;;;;;8.40;7.07;;;24.70;72.00;;;;;;5101047;28;20026;-72
2021/06/18 06:18:12;;;;;;;9.05;6.55;;;24.70;72.00;;;;;;5101678;28;20054;-76
2021/06/18 06:20:38;;;;;;;11.73;7.00;;;24.70;72.10;;;;;;5101569;28;20028;-75
2021/06/18 06:23:04;;;;;;;8.65;6.43;;;24.80;72.50;;;;;;5104894;28;20028;-76
2021/06/18 06:25:32;;;;;;;7.85;6.60;;;24.80;72.40;;;;;;5104445;28;20512;-75
2021/06/18 06:27:57;;;;;;;10.82;7.38;;;24.80;72.10;;;;;;5097456;28;20031;-77
2021/06/18 06:30:23;;;;;;;9.65;7.40;;;24.90;71.90;;;;;;5078345;28;20096;-75
2021/06/18 06:32:49;;;;;;;9.15;7.82;;;24.90;71.90;;;;;;5099261;28;20709;-74
2021/06/18 06:35:15;;;;;;;9.60;7.70;;;24.90;71.90;;;;;;5099299;28;20020;-75
2021/06/18 06:37:42;;;;;;;9.45;7.70;;;25.00;71.30;;;;;;5098421;28;20539;-75
2021/06/18 06:40:12;;;;;;;10.27;7.65;;;25.10;71.00;;;;;;5094473;28;20103;-75
2021/06/18 06:42:38;;;;;;;11.30;8.30;;;25.10;70.90;;;;;;5089318;28;20471;-75
2021/06/18 06:45:05;;;;;;;10.07;8.02;;;25.10;70.70;;;;;;5096435;28;20128;-76
2021/06/18 06:47:31;;;;;;;9.60;7.90;;;25.20;70.30;;;;;;5095211;28;20092;-73
2021/06/18 06:49:57;;;;;;;8.38;7.32;;;25.30;70.30;;;;;;5099487;28;20031;-73
2021/06/18 06:52:23;;;;;;;10.18;7.40;;;25.30;70.50;;;;;;5102304;28;20032;-73
2021/06/18 06:54:48;;;;;;;14.38;7.57;;;25.30;70.20;;;;;;5082260;28;20047;-73
2021/06/18 06:57:19;;;;;;;10.88;7.80;;;25.40;69.40;;;;;;5098208;28;20424;-73
2021/06/18 06:59:45;;;;;;;11.75;7.70;;;25.40;68.40;;;;;;5100582;28;20040;-73
2021/06/18 07:02:10;;;;;;;8.82;6.88;;;25.50;67.60;;;;;;5102166;28;20098;-73
2021/06/18 07:04:36;;;;;;;10.77;6.93;;;25.50;67.30;;;;;;5103455;28;20032;-73
2021/06/18 07:07:02;;;;;;;10.70;7.13;;;25.60;66.90;;;;;;5101793;28;20035;-73
2021/06/18 07:09:38;;;;;;;9.25;6.78;;;25.60;65.80;;;;;;5099859;28;20119;-74
2021/06/18 07:12:05;;;;;;;9.60;7.00;;;25.70;66.20;;;;;;5067189;28;20024;-73
2021/06/18 07:14:31;;;;;;;10.57;6.80;;;25.80;66.00;;;;;;5093144;28;20474;-73
2021/06/18 07:16:57;;;;;;;10.00;7.00;;;25.80;66.40;;;;;;5105245;28;20083;-73
2021/06/18 07:19:23;;;;;;;9.52;7.53;;;25.90;66.50;;;;;;5098953;28;20040;-73
2021/06/18 07:21:48;;;;;;;9.85;7.57;;;26.00;66.40;;;;;;5103488;28;20038;-73
2021/06/18 07:24:15;;;;;;;8.60;7.03;;;26.00;66.20;;;;;;5102335;28;20111;-74
2021/06/18 07:26:41;;;;;;;12.57;8.05;;;26.10;66.50;;;;;;5097312;28;20028;-73
2021/06/18 07:29:06;;;;;;;15.32;7.97;;;26.10;65.50;;;;;;5100052;28;20073;-74
2021/06/18 07:31:32;;;;;;;12.23;7.38;;;26.10;63.60;;;;;;5099731;28;20222;-74
2021/06/18 07:33:58;;;;;;;12.43;7.18;;;26.20;63.00;;;;;;5100360;28;20032;-74
2021/06/18 07:36:24;;;;;;;7.78;6.93;;;26.30;61.70;;;;;;5101313;28;20035;-73
2021/06/18 07:38:50;;;;;;;9.82;6.97;;;26.30;62.60;;;;;;5098801;28;20027;-74
2021/06/18 07:41:16;;;;;;;10.13;6.97;;;26.30;62.60;;;;;;5101571;28;20036;-74
2021/06/18 07:43:41;;;;;;;8.82;7.32;;;26.40;61.40;;;;;;5081544;28;20365;-74
2021/06/18 07:46:07;;;;;;;9.75;6.90;;;26.50;60.80;;;;;;5100709;28;20085;-74
2021/06/18 07:48:33;;;;;;;9.20;7.00;;;26.50;61.60;;;;;;5080729;28;20401;-74
2021/06/18 07:50:59;;;;;;;14.32;7.22;;;26.50;61.90;;;;;;5099776;28;20039;-74
2021/06/18 07:53:24;;;;;;;10.45;6.97;;;26.60;60.20;;;;;;5100695;28;20439;-74
2021/06/18 07:55:52;;;;;;;11.52;7.43;;;26.70;60.00;;;;;;5082694;28;20111;-73
2021/06/18 07:58:20;;;;;;;9.10;7.35;;;26.70;60.10;;;;;;5078373;28;20036;-73
2021/06/18 08:00:47;;;;;;;9.05;6.68;;;26.70;60.50;;;;;;5097915;28;20026;-73
2021/06/18 08:03:15;;;;;;;8.82;6.78;;;26.80;60.90;;;;;;5102592;28;20094;-74
2021/06/18 08:05:40;;;;;;;9.50;6.85;;;26.80;60.50;;;;;;5099103;28;20064;-74
2021/06/18 08:08:06;;;;;;;9.77;7.15;;;26.90;59.40;;;;;;5098227;28;20473;-73
2021/06/18 08:10:32;;;;;;;8.02;6.65;;;26.90;59.30;;;;;;5098935;28;20027;-73
2021/06/18 08:12:58;;;;;;;9.52;7.25;;;26.90;59.70;;;;;;5102328;28;20032;-73
2021/06/18 08:15:23;;;;;;;12.10;7.05;;;27.00;58.30;;;;;;5101763;28;20028;-73
2021/06/18 08:17:49;;;;;;;9.70;7.45;;;27.00;59.00;;;;;;5094803;28;20024;-73
2021/06/18 08:20:18;;;;;;;7.35;6.45;;;27.00;58.50;;;;;;5099444;28;20035;-74
2021/06/18 08:22:44;;;;;;;7.32;6.63;;;27.10;59.10;;;;;;5097764;28;20090;-73
2021/06/18 08:25:10;;;;;;;8.23;6.78;;;27.10;59.50;;;;;;5098122;28;20774;-74
2021/06/18 08:27:36;;;;;;;8.80;7.15;;;27.10;59.70;;;;;;5095959;28;20020;-71
2021/06/18 08:30:03;;;;;;;9.07;6.35;;;27.10;59.60;;;;;;5081313;28;20485;-73
2021/06/18 08:32:28;;;;;;;7.60;6.90;;;27.30;59.40;;;;;;5099064;28;20393;-72
2021/06/18 08:34:54;;;;;;;7.05;6.30;;;27.30;58.90;;;;;;5097894;28;20035;-73
2021/06/18 08:37:20;;;;;;;7.68;6.95;;;27.40;59.20;;;;;;5100788;28;20031;-72
2021/06/18 08:39:46;;;;;;;8.23;6.72;;;27.40;58.90;;;;;;5100292;28;20034;-72
2021/06/18 08:42:11;;;;;;;8.68;6.57;;;27.50;58.30;;;;;;5100205;28;20035;-72
2021/06/18 08:44:38;;;;;;;7.50;6.72;;;27.60;58.30;;;;;;5101009;28;20031;-73
2021/06/18 08:47:04;;;;;;;7.22;6.35;;;27.70;58.30;;;;;;5098302;28;20472;-72
2021/06/18 08:49:29;;;;;;;9.38;6.20;;;27.80;57.30;;;;;;5098436;28;20084;-73
2021/06/18 08:51:55;;;;;;;7.50;6.70;;;27.80;58.10;;;;;;5101319;28;20085;-72
2021/06/18 08:54:21;;;;;;;8.45;6.82;;;27.80;57.20;;;;;;5098981;28;20028;-72
2021/06/18 08:56:47;;;;;;;8.98;6.63;;;27.80;57.30;;;;;;5060204;28;20035;-74
2021/06/18 08:59:13;;;;;;;9.18;6.50;;;27.80;56.50;;;;;;5096417;28;20420;-73
2021/06/18 09:01:39;;;;;;;9.93;6.82;;;27.80;56.40;;;;;;5098065;28;20518;-73
2021/06/18 09:04:06;;;;;;;7.40;6.60;;;27.90;56.50;;;;;;5101840;28;20077;-73
2021/06/18 09:06:36;;;;;;;9.13;6.88;;;27.90;56.40;;;;;;5100405;28;20115;-70
2021/06/18 09:09:12;;;;;;;8.98;7.32;;;28.00;56.60;;;;;;5094138;28;20035;-72
2021/06/18 09:12:00;;;;;;;8.38;7.00;;;28.10;56.70;;;;;;5093289;28;20028;-71
2021/06/18 09:14:34;;;;;;;9.63;7.05;;;28.20;56.60;;;;;;5079685;28;20498;-73
2021/06/18 09:17:08;;;;;;;8.80;6.10;;;28.30;55.90;;;;;;5096683;28;20024;-73
2021/06/18 09:19:40;;;;;;;7.25;6.55;;;28.40;55.80;;;;;;5096931;28;20511;-73
2021/06/18 09:22:22;;;;;;;10.23;7.15;;;28.50;56.00;;;;;;5079566;28;20385;-77
2021/06/18 09:25:06;;;;;;;9.15;6.93;;;28.60;53.40;;;;;;5094438;28;20032;-71
2021/06/18 09:27:36;;;;;;;7.55;6.50;;;28.70;54.00;;;;;;5097725;28;20043;-71
2021/06/18 09:30:27;;;;;;;11.95;7.38;;;28.70;54.50;;;;;;5094827;28;20070;-70
2021/06/18 09:33:16;;;;;;;8.00;7.20;;;28.60;53.50;;;;;;5100790;28;20081;-70
2021/06/18 09:36:11;;;;;;;7.40;6.43;;;28.70;54.20;;;;;;5089964;28;20043;-70
2021/06/18 09:38:40;;;;;;;7.70;6.30;;;28.70;54.40;;;;;;5085819;28;20035;-70
2021/06/18 09:41:09;;;;;;;13.38;6.60;;;28.70;55.00;;;;;;5095951;28;20543;-75
2021/06/18 09:43:44;;;;;;;10.30;6.85;;;28.70;55.30;;;;;;5098409;28;20028;-70
2021/06/18 09:46:10;;;;;;;8.93;7.22;;;28.70;56.60;;;;;;5095301;28;20032;-71
2021/06/18 09:48:36;;;;;;;11.63;8.32;;;28.80;57.80;;;;;;5082912;28;20035;-74
2021/06/18 09:51:02;;;;;;;10.73;8.25;;;28.90;59.00;;;;;;5078005;28;20036;-72
2021/06/18 09:53:31;;;;;;;10.00;7.90;;;28.90;60.40;;;;;;5098727;28;20036;-72
2021/06/18 09:56:09;;;;;;;11.88;7.35;;;28.90;59.60;;;;;;5095374;28;20024;-72
2021/06/18 09:58:37;;;;;;;11.45;8.70;;;29.00;60.10;;;;;;5073734;28;20036;-73
2021/06/18 10:01:13;;;;;;;9.65;8.10;;;29.00;60.30;;;;;;5097759;28;20454;-72
2021/06/18 10:03:58;;;;;;;11.40;8.88;;;29.00;60.40;;;;;;5094185;28;20551;-72
2021/06/18 10:06:24;;;;;;;8.93;8.07;;;29.00;60.40;;;;;;5093666;28;20397;-72
2021/06/18 10:08:51;;;;;;;11.80;8.30;;;29.00;60.00;;;;;;5092929;28;20038;-73
2021/06/18 10:11:17;;;;;;;9.50;8.20;;;29.00;60.00;;;;;;5091693;28;20024;-72
2021/06/18 10:13:43;;;;;;;9.18;7.97;;;29.10;58.60;;;;;;5097678;28;20054;-71
2021/06/18 10:16:09;;;;;;;8.77;7.85;;;29.20;58.80;;;;;;5102777;28;20016;-72
2021/06/18 10:18:35;;;;;;;8.88;7.97;;;29.20;59.60;;;;;;5101999;28;20498;-72
2021/06/18 10:21:04;;;;;;;9.82;8.93;;;29.30;60.10;;;;;;5094012;28;20491;-72
2021/06/18 10:23:31;;;;;;;10.18;8.30;;;29.20;60.70;;;;;;5104105;28;20039;-72
2021/06/18 10:26:01;;;;;;;9.68;8.25;;;29.30;60.20;;;;;;5079486;28;20036;-74
2021/06/18 10:28:30;;;;;;;11.20;8.07;;;29.20;59.70;;;;;;5098672;28;20055;-74
2021/06/18 10:30:57;;;;;;;10.57;8.40;;;29.40;60.10;;;;;;5089133;28;20028;-73
2021/06/18 10:33:26;;;;;;;9.27;8.38;;;29.40;59.70;;;;;;5097148;28;20108;-75
2021/06/18 10:36:03;;;;;;;10.52;8.13;;;29.50;60.00;;;;;;5090831;28;20103;-71
2021/06/18 10:38:33;;;;;;;9.35;8.32;;;29.60;59.90;;;;;;5091438;28;20085;-74
2021/06/18 10:41:22;;;;;;;9.43;8.15;;;29.70;59.90;;;;;;5098101;28;20084;-73
2021/06/18 10:43:50;;;;;;;9.77;8.73;;;29.70;59.80;;;;;;5085644;28;20028;-73
2021/06/18 10:46:18;;;;;;;15.38;9.15;;;29.70;59.00;;;;;;5092957;28;20028;-72
2021/06/18 10:48:44;;;;;;;9.50;8.50;;;29.70;58.90;;;;;;5094234;28;20023;-74
2021/06/18 10:51:25;;;;;;;8.98;8.18;;;29.70;59.00;;;;;;5092920;28;20090;-74
2021/06/18 10:53:56;;;;;;;10.10;7.75;;;29.80;59.30;;;;;;5092765;28;20017;-73
2021/06/18 10:56:45;;;;;;;8.82;8.00;;;29.80;58.90;;;;;;5095339;28;20024;-73
2021/06/18 10:59:16;;;;;;;9.38;8.48;;;29.80;58.50;;;;;;5078090;28;20032;-75
2021/06/18 11:01:42;;;;;;;10.57;8.77;;;29.80;59.40;;;;;;5098135;28;20097;-74
2021/06/18 11:04:08;;;;;;;9.60;8.70;;;29.90;59.60;;;;;;5095715;28;20050;-74
2021/06/18 11:06:40;;;;;;;10.80;8.45;;;29.90;59.80;;;;;;5096382;28;20016;-74
2021/06/18 11:09:06;;;;;;;12.25;8.57;;;30.00;59.40;;;;;;5067018;28;20020;-74
2021/06/18 11:11:32;;;;;;;9.63;8.57;;;30.00;59.20;;;;;;5097079;28;20454;-74
2021/06/18 11:14:16;;;;;;;9.93;8.82;;;30.00;59.30;;;;;;5085735;28;20089;-74
2021/06/18 11:16:42;;;;;;;10.23;9.20;;;30.10;60.00;;;;;;5101244;28;20034;-74
2021/06/18 11:19:25;;;;;;;9.55;8.30;;;30.20;59.70;;;;;;5099591;28;20114;-74
2021/06/18 11:21:52;;;;;;;8.88;8.07;;;30.30;59.70;;;;;;5097906;28;20111;-74
2021/06/18 11:24:39;;;;;;;9.65;8.65;;;30.30;59.50;;;;;;5103266;28;20094;-74
2021/06/18 11:27:30;;;;;;;13.50;8.75;;;30.40;59.90;;;;;;5096958;28;20024;-73
2021/06/18 11:30:15;;;;;;;;;;;30.50;60.70;;;;;;5098201;28;20107;-73
2021/06/18 11:32:45;;;;;;;9.65;8.60;;;30.60;60.30;;;;;;5099250;28;19907;-73
2021/06/18 11:35:32;;;;;;;10.50;9.43;;;30.70;60.50;;;;;;5098777;28;20493;-72
2021/06/18 11:37:59;;;;;;;11.20;9.32;;;30.80;60.00;;;;;;5092595;28;20031;-71
2021/06/18 11:40:25;;;;;;;9.43;8.63;;;31.00;60.40;;;;;;5098351;28;20511;-72
2021/06/18 11:42:51;;;;;;;10.25;9.25;;;31.30;60.30;;;;;;5098553;28;20106;-72
2021/06/18 11:45:17;;;;;;;11.45;9.90;;;31.60;58.80;;;;;;5094186;28;20096;-72
2021/06/18 11:47:44;;;;;;;10.45;9.45;;;32.20;58.20;;;;;;5098764;28;20558;-72
2021/06/18 11:50:10;;;;;;;10.25;9.38;;;32.90;57.00;;;;;;5094241;28;20085;-73
2021/06/18 11:52:35;;;;;;;9.93;8.93;;;33.90;54.30;;;;;;5105727;28;20024;-73
2021/06/18 11:55:01;;;;;;;17.10;10.52;;;34.90;51.10;;;;;;5099491;28;20028;-73
2021/06/18 11:57:35;;;;;;;10.45;9.55;;;35.80;49.40;;;;;;5081235;28;20526;-72
2021/06/18 12:00:02;;;;;;;10.10;8.68;;;36.50;49.10;;;;;;5095699;28;20028;-73
2021/06/18 12:02:31;;;;;;;11.02;9.88;;;37.10;46.70;;;;;;5096673;28;20028;-73
2021/06/18 12:05:00;;;;;;;9.52;8.73;;;37.50;45.10;;;;;;5098282;28;20036;-73
2021/06/18 12:07:31;;;;;;;10.32;9.32;;;38.00;44.10;;;;;;5092609;28;20110;-73
2021/06/18 12:09:57;;;;;;;10.88;9.88;;;38.20;44.20;;;;;;5097030;28;20062;-73
2021/06/18 12:12:22;;;;;;;11.13;10.20;;;38.30;44.50;;;;;;5102553;28;20077;-73
2021/06/18 12:14:55;;;;;;;10.93;9.82;;;38.40;44.90;;;;;;5099280;28;20020;-73
2021/06/18 12:17:21;;;;;;;11.07;10.07;;;38.40;44.20;;;;;;5080828;28;20067;-77
2021/06/18 12:19:49;;;;;;;11.48;9.23;;;38.40;44.80;;;;;;5098235;28;20877;-73
2021/06/18 12:22:27;;;;;;;10.52;9.48;;;38.20;43.70;;;;;;5095861;28;20037;-72
2021/06/18 12:24:58;;;;;;;10.07;9.00;;;38.10;44.30;;;;;;5097742;28;20508;-72
2021/06/18 12:27:32;;;;;;;10.23;9.20;;;37.80;43.30;;;;;;5100060;28;20064;-72
2021/06/18 12:30:05;;;;;;;11.05;9.93;;;37.60;44.60;;;;;;5096657;28;20059;-72
2021/06/18 12:32:33;;;;;;;13.40;10.18;;;37.60;44.80;;;;;;5098821;28;20032;-73
2021/06/18 12:35:20;;;;;;;11.10;9.65;;;37.70;45.00;;;;;;5079986;28;20039;-74
2021/06/18 12:37:52;;;;;;;10.07;8.93;;;37.90;45.00;;;;;;5097427;28;20028;-71
2021/06/18 12:40:27;;;;;;;12.18;9.40;;;38.20;45.20;;;;;;5079040;28;20049;-70
2021/06/18 12:42:55;;;;;;;10.77;9.90;;;38.30;43.10;;;;;;5097876;28;20037;-73
2021/06/18 12:45:23;;;;;;;10.80;9.23;;;38.30;43.30;;;;;;5094770;28;20020;-72
2021/06/18 12:47:53;;;;;;;11.13;10.05;;;38.40;42.60;;;;;;5098472;28;20109;-73
2021/06/18 12:50:25;;;;;;;10.07;9.07;;;37.90;42.20;;;;;;5094462;28;20020;-73